sensor_id;sensor_type;location;lat;lon;timestamp;P1;durP1;ratioP1;P2;durP2;ratioP2
51732;SDS011;39139;53.144;6.244;2022-11-23T00:02:24;20.10;;;15.65;;
51732;SDS011;39139;53.144;6.244;2022-11-23T00:04:50;19.67;;;15.20;;
51732;SDS011;39139;53.144;6.244;2022-11-23T00:07:16;22.65;;;15.90;;
51732;SDS011;39139;53.144;6.244;2022-11-23T00:09:41;24.20;;;16.83;;
51732;SDS011;39139;53.144;6.244;2022-11-23T00:12:07;17.88;;;14.50;;
51732;SDS011;39139;53.144;6.244;2022-11-23T00:14:33;19.35;;;15.27;;
51732;SDS011;39139;53.144;6.244;2022-11-23T00:16:59;19.92;;;15.63;;
51732;SDS011;39139;53.144;6.244;2022-11-23T00:19:24;19.08;;;14.63;;
51732;SDS011;39139;53.144;6.244;2022-11-23T00:21:50;25.25;;;16.55;;
51732;SDS011;39139;53.144;6.244;2022-11-23T00:24:16;20.85;;;15.20;;
51732;SDS011;39139;53.144;6.244;2022-11-23T00:26:41;23.60;;;15.07;;
51732;SDS011;39139;53.144;6.244;2022-11-23T00:29:07;21.48;;;14.65;;
51732;SDS011;39139;53.144;6.244;2022-11-23T00:31:32;18.73;;;15.25;;
51732;SDS011;39139;53.144;6.244;2022-11-23T00:33:58;20.60;;;14.20;;
51732;SDS011;39139;53.144;6.244;2022-11-23T00:36:24;23.08;;;14.60;;
51732;SDS011;39139;53.144;6.244;2022-11-23T00:38:51;22.27;;;15.45;;
51732;SDS011;39139;53.144;6.244;2022-11-23T00:41:19;20.08;;;14.52;;
51732;SDS011;39139;53.144;6.244;2022-11-23T00:43:47;20.65;;;14.57;;
51732;SDS011;39139;53.144;6.244;2022-11-23T00:46:14;19.75;;;13.85;;
51732;SDS011;39139;53.144;6.244;2022-11-23T00:48:41;19.50;;;15.00;;
51732;SDS011;39139;53.144;6.244;2022-11-23T00:51:11;16.88;;;13.93;;
51732;SDS011;39139;53.144;6.244;2022-11-23T00:53:39;16.52;;;13.77;;
51732;SDS011;39139;53.144;6.244;2022-11-23T00:56:05;20.83;;;13.48;;
51732;SDS011;39139;53.144;6.244;2022-11-23T00:58:32;24.13;;;15.35;;
51732;SDS011;39139;53.144;6.244;2022-11-23T01:00:59;20.77;;;12.95;;
51732;SDS011;39139;53.144;6.244;2022-11-23T01:03:36;21.67;;;14.13;;
51732;SDS011;39139;53.144;6.244;2022-11-23T01:06:14;22.83;;;15.00;;
51732;SDS011;39139;53.144;6.244;2022-11-23T01:08:52;17.77;;;13.63;;
51732;SDS011;39139;53.144;6.244;2022-11-23T01:11:23;14.88;;;12.45;;
51732;SDS011;39139;53.144;6.244;2022-11-23T01:13:50;18.80;;;14.20;;
51732;SDS011;39139;53.144;6.244;2022-11-23T01:16:17;20.00;;;14.07;;
51732;SDS011;39139;53.144;6.244;2022-11-23T01:19:07;20.45;;;14.20;;
51732;SDS011;39139;53.144;6.244;2022-11-23T01:21:37;16.90;;;13.07;;
51732;SDS011;39139;53.144;6.244;2022-11-23T01:24:03;20.13;;;13.80;;
51732;SDS011;39139;53.144;6.244;2022-11-23T01:26:31;21.95;;;13.55;;
51732;SDS011;39139;53.144;6.244;2022-11-23T01:28:57;17.02;;;13.50;;
51732;SDS011;39139;53.144;6.244;2022-11-23T01:31:23;19.95;;;13.40;;
51732;SDS011;39139;53.144;6.244;2022-11-23T01:33:53;17.63;;;13.70;;
51732;SDS011;39139;53.144;6.244;2022-11-23T01:36:21;17.90;;;12.43;;
51732;SDS011;39139;53.144;6.244;2022-11-23T01:38:52;20.27;;;14.40;;
51732;SDS011;39139;53.144;6.244;2022-11-23T01:41:20;24.77;;;13.70;;
51732;SDS011;39139;53.144;6.244;2022-11-23T01:43:47;20.10;;;13.00;;
51732;SDS011;39139;53.144;6.244;2022-11-23T01:46:13;17.90;;;13.35;;
51732;SDS011;39139;53.144;6.244;2022-11-23T01:51:11;21.52;;;13.48;;
51732;SDS011;39139;53.144;6.244;2022-11-23T01:53:43;21.02;;;13.35;;
51732;SDS011;39139;53.144;6.244;2022-11-23T01:56:13;18.50;;;13.68;;
51732;SDS011;39139;53.144;6.244;2022-11-23T01:58:41;15.82;;;13.00;;
51732;SDS011;39139;53.144;6.244;2022-11-23T02:01:10;17.10;;;14.13;;
51732;SDS011;39139;53.144;6.244;2022-11-23T02:03:37;20.55;;;14.40;;
51732;SDS011;39139;53.144;6.244;2022-11-23T02:06:06;21.23;;;14.77;;
51732;SDS011;39139;53.144;6.244;2022-11-23T02:08:35;24.58;;;13.82;;
51732;SDS011;39139;53.144;6.244;2022-11-23T02:11:01;22.45;;;13.63;;
51732;SDS011;39139;53.144;6.244;2022-11-23T02:13:27;14.13;;;12.50;;
51732;SDS011;39139;53.144;6.244;2022-11-23T02:15:53;25.17;;;14.82;;
51732;SDS011;39139;53.144;6.244;2022-11-23T02:18:22;21.23;;;14.50;;
51732;SDS011;39139;53.144;6.244;2022-11-23T02:20:51;23.55;;;14.25;;
51732;SDS011;39139;53.144;6.244;2022-11-23T02:23:37;25.75;;;14.90;;
51732;SDS011;39139;53.144;6.244;2022-11-23T02:26:26;27.95;;;14.75;;
51732;SDS011;39139;53.144;6.244;2022-11-23T02:31:28;23.00;;;15.32;;
51732;SDS011;39139;53.144;6.244;2022-11-23T02:33:53;29.55;;;15.35;;
51732;SDS011;39139;53.144;6.244;2022-11-23T02:36:20;24.25;;;14.85;;
51732;SDS011;39139;53.144;6.244;2022-11-23T02:38:49;24.67;;;15.02;;
51732;SDS011;39139;53.144;6.244;2022-11-23T02:41:15;25.17;;;15.55;;
51732;SDS011;39139;53.144;6.244;2022-11-23T02:43:41;28.77;;;16.88;;
51732;SDS011;39139;53.144;6.244;2022-11-23T02:46:07;26.52;;;16.90;;
51732;SDS011;39139;53.144;6.244;2022-11-23T02:48:33;27.38;;;17.55;;
51732;SDS011;39139;53.144;6.244;2022-11-23T02:50:59;31.40;;;16.38;;
51732;SDS011;39139;53.144;6.244;2022-11-23T02:53:25;28.88;;;19.50;;
51732;SDS011;39139;53.144;6.244;2022-11-23T02:55:51;30.23;;;18.23;;
51732;SDS011;39139;53.144;6.244;2022-11-23T02:58:16;31.25;;;17.42;;
51732;SDS011;39139;53.144;6.244;2022-11-23T03:00:42;29.75;;;17.98;;
51732;SDS011;39139;53.144;6.244;2022-11-23T03:03:07;28.92;;;18.17;;
51732;SDS011;39139;53.144;6.244;2022-11-23T03:05:33;32.08;;;19.13;;
51732;SDS011;39139;53.144;6.244;2022-11-23T03:08:00;31.52;;;19.10;;
51732;SDS011;39139;53.144;6.244;2022-11-23T03:10:26;30.88;;;19.80;;
51732;SDS011;39139;53.144;6.244;2022-11-23T03:12:55;28.45;;;19.80;;
51732;SDS011;39139;53.144;6.244;2022-11-23T03:15:21;38.00;;;21.15;;
51732;SDS011;39139;53.144;6.244;2022-11-23T03:17:47;30.60;;;19.88;;
51732;SDS011;39139;53.144;6.244;2022-11-23T03:20:13;30.02;;;19.77;;
51732;SDS011;39139;53.144;6.244;2022-11-23T03:22:39;34.75;;;20.52;;
51732;SDS011;39139;53.144;6.244;2022-11-23T03:25:05;34.38;;;20.30;;
51732;SDS011;39139;53.144;6.244;2022-11-23T03:27:30;39.72;;;21.17;;
51732;SDS011;39139;53.144;6.244;2022-11-23T03:29:57;41.70;;;22.38;;
51732;SDS011;39139;53.144;6.244;2022-11-23T03:32:24;43.33;;;24.17;;
51732;SDS011;39139;53.144;6.244;2022-11-23T03:34:49;31.40;;;22.02;;
51732;SDS011;39139;53.144;6.244;2022-11-23T03:37:15;33.97;;;22.52;;
51732;SDS011;39139;53.144;6.244;2022-11-23T03:39:40;39.83;;;22.63;;
51732;SDS011;39139;53.144;6.244;2022-11-23T03:42:06;38.17;;;22.45;;
51732;SDS011;39139;53.144;6.244;2022-11-23T03:44:32;41.13;;;22.65;;
51732;SDS011;39139;53.144;6.244;2022-11-23T03:46:57;38.53;;;22.00;;
51732;SDS011;39139;53.144;6.244;2022-11-23T03:49:23;38.22;;;23.10;;
51732;SDS011;39139;53.144;6.244;2022-11-23T03:51:49;46.85;;;24.17;;
51732;SDS011;39139;53.144;6.244;2022-11-23T03:54:14;31.30;;;22.33;;
51732;SDS011;39139;53.144;6.244;2022-11-23T03:56:40;37.70;;;23.10;;
51732;SDS011;39139;53.144;6.244;2022-11-23T03:59:06;38.97;;;22.10;;
51732;SDS011;39139;53.144;6.244;2022-11-23T04:01:31;39.50;;;24.33;;
51732;SDS011;39139;53.144;6.244;2022-11-23T04:03:57;39.17;;;24.35;;
51732;SDS011;39139;53.144;6.244;2022-11-23T04:06:23;38.90;;;24.95;;
51732;SDS011;39139;53.144;6.244;2022-11-23T04:08:48;37.92;;;24.25;;
51732;SDS011;39139;53.144;6.244;2022-11-23T04:11:14;43.17;;;24.83;;
51732;SDS011;39139;53.144;6.244;2022-11-23T04:13:39;37.33;;;24.55;;
51732;SDS011;39139;53.144;6.244;2022-11-23T04:16:05;35.88;;;25.05;;
51732;SDS011;39139;53.144;6.244;2022-11-23T04:18:31;49.08;;;25.88;;
51732;SDS011;39139;53.144;6.244;2022-11-23T04:20:57;46.60;;;26.52;;
51732;SDS011;39139;53.144;6.244;2022-11-23T04:23:23;44.72;;;27.70;;
51732;SDS011;39139;53.144;6.244;2022-11-23T04:25:48;44.10;;;26.40;;
51732;SDS011;39139;53.144;6.244;2022-11-23T04:28:14;48.05;;;28.30;;
51732;SDS011;39139;53.144;6.244;2022-11-23T04:30:40;43.40;;;27.02;;
51732;SDS011;39139;53.144;6.244;2022-11-23T04:33:05;45.47;;;26.38;;
51732;SDS011;39139;53.144;6.244;2022-11-23T04:35:31;44.72;;;26.50;;
51732;SDS011;39139;53.144;6.244;2022-11-23T04:37:58;43.92;;;26.45;;
51732;SDS011;39139;53.144;6.244;2022-11-23T04:40:23;44.08;;;27.17;;
51732;SDS011;39139;53.144;6.244;2022-11-23T04:42:49;44.10;;;28.33;;
51732;SDS011;39139;53.144;6.244;2022-11-23T04:45:15;44.17;;;26.65;;
51732;SDS011;39139;53.144;6.244;2022-11-23T04:47:40;50.13;;;30.42;;
51732;SDS011;39139;53.144;6.244;2022-11-23T04:50:06;46.05;;;28.65;;
51732;SDS011;39139;53.144;6.244;2022-11-23T04:52:32;43.60;;;27.70;;
51732;SDS011;39139;53.144;6.244;2022-11-23T04:54:58;49.38;;;30.30;;
51732;SDS011;39139;53.144;6.244;2022-11-23T04:57:26;48.50;;;28.30;;
51732;SDS011;39139;53.144;6.244;2022-11-23T04:59:51;47.33;;;29.27;;
51732;SDS011;39139;53.144;6.244;2022-11-23T05:02:17;53.80;;;29.30;;
51732;SDS011;39139;53.144;6.244;2022-11-23T05:04:43;49.65;;;29.67;;
51732;SDS011;39139;53.144;6.244;2022-11-23T05:07:08;47.90;;;29.88;;
51732;SDS011;39139;53.144;6.244;2022-11-23T05:09:34;53.28;;;31.90;;
51732;SDS011;39139;53.144;6.244;2022-11-23T05:12:00;44.35;;;29.02;;
51732;SDS011;39139;53.144;6.244;2022-11-23T05:14:25;57.35;;;31.38;;
51732;SDS011;39139;53.144;6.244;2022-11-23T05:16:51;51.15;;;31.08;;
51732;SDS011;39139;53.144;6.244;2022-11-23T05:19:16;57.65;;;31.33;;
51732;SDS011;39139;53.144;6.244;2022-11-23T05:21:42;52.22;;;29.75;;
51732;SDS011;39139;53.144;6.244;2022-11-23T05:24:07;52.75;;;32.50;;
51732;SDS011;39139;53.144;6.244;2022-11-23T05:26:33;61.38;;;31.75;;
51732;SDS011;39139;53.144;6.244;2022-11-23T05:28:59;57.08;;;31.50;;
51732;SDS011;39139;53.144;6.244;2022-11-23T05:31:25;57.72;;;30.35;;
51732;SDS011;39139;53.144;6.244;2022-11-23T05:33:50;55.75;;;32.15;;
51732;SDS011;39139;53.144;6.244;2022-11-23T05:36:16;63.47;;;32.50;;
51732;SDS011;39139;53.144;6.244;2022-11-23T05:38:41;56.03;;;30.45;;
51732;SDS011;39139;53.144;6.244;2022-11-23T05:41:07;54.30;;;30.10;;
51732;SDS011;39139;53.144;6.244;2022-11-23T05:43:33;48.83;;;30.42;;
51732;SDS011;39139;53.144;6.244;2022-11-23T05:45:59;53.97;;;31.25;;
51732;SDS011;39139;53.144;6.244;2022-11-23T05:48:25;45.42;;;31.20;;
51732;SDS011;39139;53.144;6.244;2022-11-23T05:50:51;52.85;;;31.35;;
51732;SDS011;39139;53.144;6.244;2022-11-23T05:53:17;54.40;;;30.63;;
51732;SDS011;39139;53.144;6.244;2022-11-23T05:55:42;46.35;;;29.40;;
51732;SDS011;39139;53.144;6.244;2022-11-23T05:58:08;58.55;;;32.03;;
51732;SDS011;39139;53.144;6.244;2022-11-23T06:00:34;51.80;;;30.65;;
51732;SDS011;39139;53.144;6.244;2022-11-23T06:02:59;54.00;;;32.25;;
51732;SDS011;39139;53.144;6.244;2022-11-23T06:05:26;51.95;;;31.63;;
51732;SDS011;39139;53.144;6.244;2022-11-23T06:07:52;47.90;;;28.77;;
51732;SDS011;39139;53.144;6.244;2022-11-23T06:10:18;48.10;;;29.27;;
51732;SDS011;39139;53.144;6.244;2022-11-23T06:12:44;56.88;;;30.98;;
51732;SDS011;39139;53.144;6.244;2022-11-23T06:15:10;50.40;;;30.80;;
51732;SDS011;39139;53.144;6.244;2022-11-23T06:17:36;51.03;;;29.60;;
51732;SDS011;39139;53.144;6.244;2022-11-23T06:20:03;45.35;;;28.48;;
51732;SDS011;39139;53.144;6.244;2022-11-23T06:22:30;50.25;;;29.95;;
51732;SDS011;39139;53.144;6.244;2022-11-23T06:24:56;41.90;;;27.90;;
51732;SDS011;39139;53.144;6.244;2022-11-23T06:27:22;48.50;;;26.50;;
51732;SDS011;39139;53.144;6.244;2022-11-23T06:29:47;48.22;;;27.27;;
51732;SDS011;39139;53.144;6.244;2022-11-23T06:32:13;46.83;;;28.17;;
51732;SDS011;39139;53.144;6.244;2022-11-23T06:34:39;46.22;;;27.60;;
51732;SDS011;39139;53.144;6.244;2022-11-23T06:37:05;39.13;;;26.27;;
51732;SDS011;39139;53.144;6.244;2022-11-23T06:39:31;44.25;;;25.90;;
51732;SDS011;39139;53.144;6.244;2022-11-23T06:41:56;41.17;;;25.55;;
51732;SDS011;39139;53.144;6.244;2022-11-23T06:44:22;41.25;;;25.58;;
51732;SDS011;39139;53.144;6.244;2022-11-23T06:46:47;35.75;;;23.63;;
51732;SDS011;39139;53.144;6.244;2022-11-23T06:49:13;40.25;;;24.85;;
51732;SDS011;39139;53.144;6.244;2022-11-23T06:51:44;38.55;;;23.52;;
51732;SDS011;39139;53.144;6.244;2022-11-23T06:54:10;37.15;;;24.30;;
51732;SDS011;39139;53.144;6.244;2022-11-23T06:56:36;39.60;;;22.63;;
51732;SDS011;39139;53.144;6.244;2022-11-23T06:59:01;38.60;;;22.83;;
51732;SDS011;39139;53.144;6.244;2022-11-23T07:01:27;31.98;;;21.13;;
51732;SDS011;39139;53.144;6.244;2022-11-23T07:03:53;32.65;;;20.63;;
51732;SDS011;39139;53.144;6.244;2022-11-23T07:06:18;33.97;;;19.88;;
51732;SDS011;39139;53.144;6.244;2022-11-23T07:08:44;31.77;;;19.60;;
51732;SDS011;39139;53.144;6.244;2022-11-23T07:11:10;32.78;;;19.83;;
51732;SDS011;39139;53.144;6.244;2022-11-23T07:13:36;31.52;;;19.52;;
51732;SDS011;39139;53.144;6.244;2022-11-23T07:16:02;34.45;;;18.75;;
51732;SDS011;39139;53.144;6.244;2022-11-23T07:18:29;29.98;;;17.60;;
51732;SDS011;39139;53.144;6.244;2022-11-23T07:20:58;27.13;;;18.77;;
51732;SDS011;39139;53.144;6.244;2022-11-23T07:23:24;26.73;;;18.75;;
51732;SDS011;39139;53.144;6.244;2022-11-23T07:25:50;32.92;;;17.77;;
51732;SDS011;39139;53.144;6.244;2022-11-23T07:28:16;21.63;;;15.82;;
51732;SDS011;39139;53.144;6.244;2022-11-23T07:30:42;27.42;;;17.55;;
51732;SDS011;39139;53.144;6.244;2022-11-23T07:33:09;22.92;;;14.90;;
51732;SDS011;39139;53.144;6.244;2022-11-23T07:35:36;28.08;;;15.07;;
51732;SDS011;39139;53.144;6.244;2022-11-23T07:38:04;22.70;;;14.77;;
51732;SDS011;39139;53.144;6.244;2022-11-23T07:40:32;23.48;;;14.43;;
51732;SDS011;39139;53.144;6.244;2022-11-23T07:42:59;21.83;;;13.75;;
51732;SDS011;39139;53.144;6.244;2022-11-23T07:45:26;24.83;;;12.68;;
51732;SDS011;39139;53.144;6.244;2022-11-23T07:47:56;26.77;;;13.13;;
51732;SDS011;39139;53.144;6.244;2022-11-23T07:50:23;20.30;;;12.65;;
51732;SDS011;39139;53.144;6.244;2022-11-23T07:52:49;24.15;;;12.73;;
51732;SDS011;39139;53.144;6.244;2022-11-23T07:55:14;20.70;;;12.20;;
51732;SDS011;39139;53.144;6.244;2022-11-23T07:57:40;16.30;;;11.82;;
51732;SDS011;39139;53.144;6.244;2022-11-23T08:00:06;15.50;;;11.48;;
51732;SDS011;39139;53.144;6.244;2022-11-23T08:02:33;17.30;;;11.18;;
51732;SDS011;39139;53.144;6.244;2022-11-23T08:04:58;23.85;;;12.02;;
51732;SDS011;39139;53.144;6.244;2022-11-23T08:07:24;21.02;;;11.90;;
51732;SDS011;39139;53.144;6.244;2022-11-23T08:09:49;19.05;;;11.18;;
51732;SDS011;39139;53.144;6.244;2022-11-23T08:12:15;16.10;;;11.60;;
51732;SDS011;39139;53.144;6.244;2022-11-23T08:14:41;17.83;;;12.02;;
51732;SDS011;39139;53.144;6.244;2022-11-23T08:17:06;24.55;;;11.52;;
51732;SDS011;39139;53.144;6.244;2022-11-23T08:19:32;22.55;;;11.73;;
51732;SDS011;39139;53.144;6.244;2022-11-23T08:21:58;18.48;;;11.20;;
51732;SDS011;39139;53.144;6.244;2022-11-23T08:24:23;26.15;;;11.43;;
51732;SDS011;39139;53.144;6.244;2022-11-23T08:26:49;17.73;;;11.82;;
51732;SDS011;39139;53.144;6.244;2022-11-23T08:29:15;18.95;;;10.98;;
51732;SDS011;39139;53.144;6.244;2022-11-23T08:31:40;17.08;;;11.13;;
51732;SDS011;39139;53.144;6.244;2022-11-23T08:34:06;23.73;;;10.35;;
51732;SDS011;39139;53.144;6.244;2022-11-23T08:36:32;19.88;;;10.55;;
51732;SDS011;39139;53.144;6.244;2022-11-23T08:38:57;18.33;;;10.35;;
51732;SDS011;39139;53.144;6.244;2022-11-23T08:41:23;15.55;;;9.80;;
51732;SDS011;39139;53.144;6.244;2022-11-23T08:43:49;17.52;;;9.88;;
51732;SDS011;39139;53.144;6.244;2022-11-23T08:46:15;16.92;;;9.73;;
51732;SDS011;39139;53.144;6.244;2022-11-23T08:48:41;16.02;;;8.57;;
51732;SDS011;39139;53.144;6.244;2022-11-23T08:51:07;17.55;;;8.75;;
51732;SDS011;39139;53.144;6.244;2022-11-23T08:53:33;18.15;;;8.80;;
51732;SDS011;39139;53.144;6.244;2022-11-23T08:55:59;24.50;;;8.13;;
51732;SDS011;39139;53.144;6.244;2022-11-23T08:58:29;18.30;;;8.18;;
51732;SDS011;39139;53.144;6.244;2022-11-23T09:00:55;16.42;;;8.02;;
51732;SDS011;39139;53.144;6.244;2022-11-23T09:03:20;16.77;;;8.40;;
51732;SDS011;39139;53.144;6.244;2022-11-23T09:05:46;17.73;;;8.10;;
51732;SDS011;39139;53.144;6.244;2022-11-23T09:08:12;14.93;;;7.45;;
51732;SDS011;39139;53.144;6.244;2022-11-23T09:10:40;13.30;;;7.43;;
51732;SDS011;39139;53.144;6.244;2022-11-23T09:13:06;13.50;;;7.03;;
51732;SDS011;39139;53.144;6.244;2022-11-23T09:15:32;15.35;;;7.57;;
51732;SDS011;39139;53.144;6.244;2022-11-23T09:17:58;13.00;;;6.63;;
51732;SDS011;39139;53.144;6.244;2022-11-23T09:20:23;12.48;;;7.03;;
51732;SDS011;39139;53.144;6.244;2022-11-23T09:22:50;11.13;;;6.82;;
51732;SDS011;39139;53.144;6.244;2022-11-23T09:25:16;17.42;;;6.63;;
51732;SDS011;39139;53.144;6.244;2022-11-23T09:27:42;14.50;;;6.38;;
51732;SDS011;39139;53.144;6.244;2022-11-23T09:30:08;15.50;;;6.57;;
51732;SDS011;39139;53.144;6.244;2022-11-23T09:32:34;12.25;;;5.85;;
51732;SDS011;39139;53.144;6.244;2022-11-23T09:35:00;14.93;;;6.78;;
51732;SDS011;39139;53.144;6.244;2022-11-23T09:37:25;14.90;;;5.75;;
51732;SDS011;39139;53.144;6.244;2022-11-23T09:39:51;15.93;;;5.90;;
51732;SDS011;39139;53.144;6.244;2022-11-23T09:45:24;15.15;;;5.80;;
51732;SDS011;39139;53.144;6.244;2022-11-23T09:50:55;20.05;;;5.45;;
51732;SDS011;39139;53.144;6.244;2022-11-23T09:56:42;19.00;;;5.23;;
51732;SDS011;39139;53.144;6.244;2022-11-23T09:59:01;10.25;;;4.40;;
51732;SDS011;39139;53.144;6.244;2022-11-23T10:01:35;10.70;;;4.50;;
51732;SDS011;39139;53.144;6.244;2022-11-23T10:04:02;11.57;;;4.13;;
51732;SDS011;39139;53.144;6.244;2022-11-23T10:06:29;11.45;;;4.05;;
51732;SDS011;39139;53.144;6.244;2022-11-23T10:20:32;11.70;;;4.47;;
51732;SDS011;39139;53.144;6.244;2022-11-23T10:23:12;11.20;;;4.45;;
51732;SDS011;39139;53.144;6.244;2022-11-23T10:25:48;14.73;;;5.03;;
51732;SDS011;39139;53.144;6.244;2022-11-23T10:28:18;15.68;;;4.95;;
51732;SDS011;39139;53.144;6.244;2022-11-23T10:30:46;16.02;;;5.28;;
51732;SDS011;39139;53.144;6.244;2022-11-23T10:33:31;16.50;;;5.38;;
51732;SDS011;39139;53.144;6.244;2022-11-23T10:36:17;18.45;;;5.68;;
51732;SDS011;39139;53.144;6.244;2022-11-23T10:38:42;18.45;;;4.80;;
51732;SDS011;39139;53.144;6.244;2022-11-23T10:41:10;16.73;;;5.25;;
51732;SDS011;39139;53.144;6.244;2022-11-23T10:51:33;17.17;;;5.50;;
51732;SDS011;39139;53.144;6.244;2022-11-23T10:54:00;16.60;;;4.95;;
51732;SDS011;39139;53.144;6.244;2022-11-23T10:56:28;12.20;;;4.40;;
51732;SDS011;39139;53.144;6.244;2022-11-23T10:58:55;17.50;;;5.30;;
51732;SDS011;39139;53.144;6.244;2022-11-23T11:01:22;8.43;;;4.00;;
51732;SDS011;39139;53.144;6.244;2022-11-23T11:03:50;18.85;;;3.97;;
51732;SDS011;39139;53.144;6.244;2022-11-23T11:06:20;14.70;;;4.10;;
51732;SDS011;39139;53.144;6.244;2022-11-23T11:08:51;11.95;;;3.42;;
51732;SDS011;39139;53.144;6.244;2022-11-23T11:11:26;11.70;;;3.50;;
51732;SDS011;39139;53.144;6.244;2022-11-23T11:14:01;15.50;;;4.45;;
51732;SDS011;39139;53.144;6.244;2022-11-23T11:16:47;14.10;;;3.33;;
51732;SDS011;39139;53.144;6.244;2022-11-23T11:19:26;19.10;;;4.03;;
51732;SDS011;39139;53.144;6.244;2022-11-23T11:21:53;11.85;;;3.72;;
51732;SDS011;39139;53.144;6.244;2022-11-23T11:24:20;16.90;;;3.05;;
51732;SDS011;39139;53.144;6.244;2022-11-23T11:27:01;14.55;;;3.67;;
51732;SDS011;39139;53.144;6.244;2022-11-23T11:30:04;11.02;;;2.85;;
51732;SDS011;39139;53.144;6.244;2022-11-23T11:35:09;12.88;;;3.50;;
51732;SDS011;39139;53.144;6.244;2022-11-23T11:37:45;12.80;;;3.13;;
51732;SDS011;39139;53.144;6.244;2022-11-23T11:45:40;12.60;;;2.95;;
51732;SDS011;39139;53.144;6.244;2022-11-23T11:50:35;15.38;;;3.40;;
51732;SDS011;39139;53.144;6.244;2022-11-23T11:53:10;17.17;;;3.15;;
51732;SDS011;39139;53.144;6.244;2022-11-23T11:55:59;10.70;;;2.40;;
51732;SDS011;39139;53.144;6.244;2022-11-23T11:58:27;19.85;;;2.45;;
51732;SDS011;39139;53.144;6.244;2022-11-23T12:01:07;17.40;;;3.15;;
51732;SDS011;39139;53.144;6.244;2022-11-23T12:03:55;14.65;;;2.95;;
51732;SDS011;39139;53.144;6.244;2022-11-23T12:06:27;10.43;;;2.38;;
51732;SDS011;39139;53.144;6.244;2022-11-23T12:11:41;16.02;;;2.88;;
51732;SDS011;39139;53.144;6.244;2022-11-23T12:14:08;14.73;;;3.17;;
51732;SDS011;39139;53.144;6.244;2022-11-23T12:45:41;11.27;;;2.17;;
51732;SDS011;39139;53.144;6.244;2022-11-23T12:48:11;9.52;;;2.60;;
51732;SDS011;39139;53.144;6.244;2022-11-23T12:51:01;12.50;;;2.53;;
51732;SDS011;39139;53.144;6.244;2022-11-23T12:53:53;13.73;;;2.88;;
51732;SDS011;39139;53.144;6.244;2022-11-23T12:59:18;9.65;;;2.08;;
51732;SDS011;39139;53.144;6.244;2022-11-23T13:01:56;12.10;;;2.20;;
51732;SDS011;39139;53.144;6.244;2022-11-23T13:10:24;16.38;;;2.88;;
51732;SDS011;39139;53.144;6.244;2022-11-23T13:13:29;15.38;;;2.75;;
51732;SDS011;39139;53.144;6.244;2022-11-23T13:21:35;14.45;;;2.95;;
51732;SDS011;39139;53.144;6.244;2022-11-23T13:24:21;12.73;;;1.77;;
51732;SDS011;39139;53.144;6.244;2022-11-23T13:34:58;12.50;;;2.13;;
51732;SDS011;39139;53.144;6.244;2022-11-23T13:37:23;7.07;;;1.75;;
51732;SDS011;39139;53.144;6.244;2022-11-23T13:42:15;4.85;;;1.33;;
51732;SDS011;39139;53.144;6.244;2022-11-23T13:44:41;8.63;;;1.38;;
51732;SDS011;39139;53.144;6.244;2022-11-23T13:49:44;11.65;;;1.48;;
51732;SDS011;39139;53.144;6.244;2022-11-23T13:54:59;7.40;;;2.10;;
51732;SDS011;39139;53.144;6.244;2022-11-23T13:57:44;11.52;;;2.10;;
51732;SDS011;39139;53.144;6.244;2022-11-23T14:00:44;6.78;;;1.90;;
51732;SDS011;39139;53.144;6.244;2022-11-23T14:08:43;10.27;;;1.73;;
51732;SDS011;39139;53.144;6.244;2022-11-23T14:11:11;11.15;;;1.73;;
51732;SDS011;39139;53.144;6.244;2022-11-23T14:13:44;16.00;;;2.25;;
51732;SDS011;39139;53.144;6.244;2022-11-23T14:16:20;9.63;;;2.70;;
51732;SDS011;39139;53.144;6.244;2022-11-23T14:19:23;13.18;;;1.80;;
51732;SDS011;39139;53.144;6.244;2022-11-23T14:29:59;9.45;;;2.10;;
51732;SDS011;39139;53.144;6.244;2022-11-23T14:35:29;9.35;;;1.30;;
51732;SDS011;39139;53.144;6.244;2022-11-23T14:43:25;4.63;;;1.60;;
51732;SDS011;39139;53.144;6.244;2022-11-23T14:45:53;7.03;;;1.30;;
51732;SDS011;39139;53.144;6.244;2022-11-23T14:48:32;8.02;;;1.90;;
51732;SDS011;39139;53.144;6.244;2022-11-23T14:51:03;6.30;;;1.25;;
51732;SDS011;39139;53.144;6.244;2022-11-23T14:53:37;9.88;;;1.90;;
51732;SDS011;39139;53.144;6.244;2022-11-23T14:56:05;6.00;;;1.05;;
51732;SDS011;39139;53.144;6.244;2022-11-23T14:58:44;6.32;;;1.88;;
51732;SDS011;39139;53.144;6.244;2022-11-23T15:01:10;8.57;;;1.75;;
51732;SDS011;39139;53.144;6.244;2022-11-23T15:03:53;11.02;;;1.88;;
51732;SDS011;39139;53.144;6.244;2022-11-23T15:06:29;7.10;;;1.90;;
51732;SDS011;39139;53.144;6.244;2022-11-23T15:11:26;7.35;;;2.67;;
51732;SDS011;39139;53.144;6.244;2022-11-23T15:13:53;8.65;;;2.00;;
51732;SDS011;39139;53.144;6.244;2022-11-23T15:16:22;6.72;;;1.85;;
51732;SDS011;39139;53.144;6.244;2022-11-23T15:18:48;11.82;;;2.42;;
51732;SDS011;39139;53.144;6.244;2022-11-23T15:21:18;7.35;;;2.00;;
51732;SDS011;39139;53.144;6.244;2022-11-23T15:23:49;7.82;;;1.55;;
51732;SDS011;39139;53.144;6.244;2022-11-23T15:26:22;10.40;;;2.88;;
51732;SDS011;39139;53.144;6.244;2022-11-23T15:28:51;7.25;;;2.03;;
51732;SDS011;39139;53.144;6.244;2022-11-23T15:33:48;12.20;;;2.38;;
51732;SDS011;39139;53.144;6.244;2022-11-23T15:36:17;15.20;;;2.53;;
51732;SDS011;39139;53.144;6.244;2022-11-23T15:38:49;6.55;;;2.15;;
51732;SDS011;39139;53.144;6.244;2022-11-23T15:41:16;7.55;;;2.22;;
51732;SDS011;39139;53.144;6.244;2022-11-23T15:43:52;9.23;;;1.45;;
51732;SDS011;39139;53.144;6.244;2022-11-23T15:46:22;7.72;;;1.77;;
51732;SDS011;39139;53.144;6.244;2022-11-23T15:48:51;8.30;;;1.33;;
51732;SDS011;39139;53.144;6.244;2022-11-23T15:51:26;13.32;;;2.03;;
51732;SDS011;39139;53.144;6.244;2022-11-23T15:53:56;9.27;;;1.67;;
51732;SDS011;39139;53.144;6.244;2022-11-23T15:56:33;9.27;;;1.73;;
51732;SDS011;39139;53.144;6.244;2022-11-23T15:59:02;5.30;;;1.42;;
51732;SDS011;39139;53.144;6.244;2022-11-23T16:01:29;10.18;;;1.80;;
51732;SDS011;39139;53.144;6.244;2022-11-23T16:03:58;8.77;;;2.63;;
51732;SDS011;39139;53.144;6.244;2022-11-23T16:06:38;9.43;;;2.15;;
51732;SDS011;39139;53.144;6.244;2022-11-23T16:12:19;7.45;;;1.60;;
51732;SDS011;39139;53.144;6.244;2022-11-23T16:14:50;7.47;;;1.70;;
51732;SDS011;39139;53.144;6.244;2022-11-23T16:17:18;8.73;;;2.15;;
51732;SDS011;39139;53.144;6.244;2022-11-23T16:19:48;10.88;;;1.73;;
51732;SDS011;39139;53.144;6.244;2022-11-23T16:22:26;6.13;;;1.85;;
51732;SDS011;39139;53.144;6.244;2022-11-23T16:24:59;12.60;;;1.88;;
51732;SDS011;39139;53.144;6.244;2022-11-23T16:27:28;8.40;;;2.00;;
51732;SDS011;39139;53.144;6.244;2022-11-23T16:29:54;9.30;;;2.28;;
51732;SDS011;39139;53.144;6.244;2022-11-23T16:32:26;7.60;;;2.20;;
51732;SDS011;39139;53.144;6.244;2022-11-23T16:34:54;9.02;;;2.67;;
51732;SDS011;39139;53.144;6.244;2022-11-23T16:37:22;11.95;;;2.22;;
51732;SDS011;39139;53.144;6.244;2022-11-23T16:39:50;9.88;;;2.38;;
51732;SDS011;39139;53.144;6.244;2022-11-23T16:42:16;5.70;;;2.00;;
51732;SDS011;39139;53.144;6.244;2022-11-23T16:44:41;5.88;;;2.53;;
51732;SDS011;39139;53.144;6.244;2022-11-23T16:47:24;8.20;;;2.65;;
51732;SDS011;39139;53.144;6.244;2022-11-23T16:49:51;6.85;;;1.85;;
51732;SDS011;39139;53.144;6.244;2022-11-23T16:52:17;6.45;;;1.58;;
51732;SDS011;39139;53.144;6.244;2022-11-23T16:54:43;5.97;;;1.73;;